sensor_id;sensor_type;location;lat;lon;timestamp;P1;durP1;ratioP1;P2;durP2;ratioP2
57697;SDS011;43531;52.152;6.366;2023-05-10T00:00:30;4.30;;;3.67;;
57697;SDS011;43531;52.152;6.366;2023-05-10T00:01:02;4.93;;;3.92;;
57697;SDS011;43531;52.152;6.366;2023-05-10T00:01:34;7.22;;;3.83;;
57697;SDS011;43531;52.152;6.366;2023-05-10T00:02:05;4.38;;;3.97;;
57697;SDS011;43531;52.152;6.366;2023-05-10T00:02:37;4.40;;;4.00;;
57697;SDS011;43531;52.152;6.366;2023-05-10T00:03:09;3.92;;;3.28;;
57697;SDS011;43531;52.152;6.366;2023-05-10T00:03:41;4.90;;;4.00;;
57697;SDS011;43531;52.152;6.366;2023-05-10T00:04:13;4.72;;;4.05;;
57697;SDS011;43531;52.152;6.366;2023-05-10T00:04:45;4.47;;;4.07;;
57697;SDS011;43531;52.152;6.366;2023-05-10T00:05:16;4.10;;;3.80;;
57697;SDS011;43531;52.152;6.366;2023-05-10T00:05:48;4.90;;;4.07;;
57697;SDS011;43531;52.152;6.366;2023-05-10T00:06:20;5.05;;;4.55;;
57697;SDS011;43531;52.152;6.366;2023-05-10T00:06:51;4.53;;;3.60;;
57697;SDS011;43531;52.152;6.366;2023-05-10T00:07:23;5.28;;;4.03;;
57697;SDS011;43531;52.152;6.366;2023-05-10T00:07:54;5.93;;;3.42;;
57697;SDS011;43531;52.152;6.366;2023-05-10T00:08:26;6.43;;;4.45;;
57697;SDS011;43531;52.152;6.366;2023-05-10T00:08:58;4.88;;;4.47;;
57697;SDS011;43531;52.152;6.366;2023-05-10T00:09:29;6.13;;;4.72;;
57697;SDS011;43531;52.152;6.366;2023-05-10T00:10:01;3.97;;;3.67;;
57697;SDS011;43531;52.152;6.366;2023-05-10T00:10:32;5.30;;;3.97;;
57697;SDS011;43531;52.152;6.366;2023-05-10T00:11:04;3.53;;;3.17;;
57697;SDS011;43531;52.152;6.366;2023-05-10T00:11:36;4.63;;;4.22;;
57697;SDS011;43531;52.152;6.366;2023-05-10T00:12:07;4.97;;;3.67;;
57697;SDS011;43531;52.152;6.366;2023-05-10T00:12:39;5.68;;;3.42;;
57697;SDS011;43531;52.152;6.366;2023-05-10T00:13:10;4.03;;;3.60;;
57697;SDS011;43531;52.152;6.366;2023-05-10T00:13:43;4.68;;;3.85;;
57697;SDS011;43531;52.152;6.366;2023-05-10T00:14:15;5.85;;;4.40;;
57697;SDS011;43531;52.152;6.366;2023-05-10T00:14:46;4.57;;;4.18;;
57697;SDS011;43531;52.152;6.366;2023-05-10T00:15:18;4.38;;;3.70;;
57697;SDS011;43531;52.152;6.366;2023-05-10T00:15:49;4.28;;;3.88;;
57697;SDS011;43531;52.152;6.366;2023-05-10T00:16:21;5.80;;;3.72;;
57697;SDS011;43531;52.152;6.366;2023-05-10T00:16:53;5.07;;;4.57;;
57697;SDS011;43531;52.152;6.366;2023-05-10T00:17:25;8.40;;;5.22;;
57697;SDS011;43531;52.152;6.366;2023-05-10T00:17:56;4.90;;;4.45;;
57697;SDS011;43531;52.152;6.366;2023-05-10T00:18:28;7.90;;;4.15;;
57697;SDS011;43531;52.152;6.366;2023-05-10T00:19:00;7.82;;;4.50;;
57697;SDS011;43531;52.152;6.366;2023-05-10T00:19:31;8.15;;;5.60;;
57697;SDS011;43531;52.152;6.366;2023-05-10T00:20:03;5.05;;;4.53;;
57697;SDS011;43531;52.152;6.366;2023-05-10T00:20:36;6.15;;;4.15;;
57697;SDS011;43531;52.152;6.366;2023-05-10T00:21:07;7.15;;;5.28;;
57697;SDS011;43531;52.152;6.366;2023-05-10T00:21:39;5.00;;;4.53;;
57697;SDS011;43531;52.152;6.366;2023-05-10T00:22:10;5.20;;;4.30;;
57697;SDS011;43531;52.152;6.366;2023-05-10T00:22:42;5.65;;;5.05;;
57697;SDS011;43531;52.152;6.366;2023-05-10T00:23:14;4.88;;;4.38;;
57697;SDS011;43531;52.152;6.366;2023-05-10T00:23:46;5.15;;;4.65;;
57697;SDS011;43531;52.152;6.366;2023-05-10T00:24:17;5.57;;;4.72;;
57697;SDS011;43531;52.152;6.366;2023-05-10T00:24:49;5.38;;;4.22;;
57697;SDS011;43531;52.152;6.366;2023-05-10T00:25:38;5.90;;;4.78;;
57697;SDS011;43531;52.152;6.366;2023-05-10T00:26:10;4.72;;;4.18;;
57697;SDS011;43531;52.152;6.366;2023-05-10T00:26:42;5.72;;;5.22;;
57697;SDS011;43531;52.152;6.366;2023-05-10T00:27:14;6.50;;;4.05;;
57697;SDS011;43531;52.152;6.366;2023-05-10T00:27:45;6.72;;;4.78;;
57697;SDS011;43531;52.152;6.366;2023-05-10T00:28:17;5.05;;;4.55;;
57697;SDS011;43531;52.152;6.366;2023-05-10T00:28:48;5.60;;;5.10;;
57697;SDS011;43531;52.152;6.366;2023-05-10T00:29:21;5.88;;;5.32;;
57697;SDS011;43531;52.152;6.366;2023-05-10T00:29:53;5.78;;;5.18;;
57697;SDS011;43531;52.152;6.366;2023-05-10T00:30:25;7.45;;;5.30;;
57697;SDS011;43531;52.152;6.366;2023-05-10T00:30:56;7.25;;;4.50;;
57697;SDS011;43531;52.152;6.366;2023-05-10T00:31:28;5.88;;;5.18;;
57697;SDS011;43531;52.152;6.366;2023-05-10T00:32:01;5.10;;;4.60;;
57697;SDS011;43531;52.152;6.366;2023-05-10T00:32:33;6.95;;;5.03;;
57697;SDS011;43531;52.152;6.366;2023-05-10T00:33:04;6.40;;;5.80;;
57697;SDS011;43531;52.152;6.366;2023-05-10T00:33:36;4.80;;;4.40;;
57697;SDS011;43531;52.152;6.366;2023-05-10T00:34:08;6.30;;;5.13;;
57697;SDS011;43531;52.152;6.366;2023-05-10T00:34:39;6.40;;;5.80;;
57697;SDS011;43531;52.152;6.366;2023-05-10T00:35:11;8.93;;;5.53;;
57697;SDS011;43531;52.152;6.366;2023-05-10T00:35:43;6.82;;;5.50;;
57697;SDS011;43531;52.152;6.366;2023-05-10T00:36:15;5.45;;;4.78;;
57697;SDS011;43531;52.152;6.366;2023-05-10T00:36:46;6.97;;;5.38;;
57697;SDS011;43531;52.152;6.366;2023-05-10T00:37:18;7.28;;;6.57;;
57697;SDS011;43531;52.152;6.366;2023-05-10T00:37:50;7.57;;;5.60;;
57697;SDS011;43531;52.152;6.366;2023-05-10T00:38:21;8.48;;;5.95;;
57697;SDS011;43531;52.152;6.366;2023-05-10T00:38:53;8.20;;;6.13;;
57697;SDS011;43531;52.152;6.366;2023-05-10T00:39:24;6.25;;;5.75;;
57697;SDS011;43531;52.152;6.366;2023-05-10T00:39:57;6.93;;;5.82;;
57697;SDS011;43531;52.152;6.366;2023-05-10T00:40:29;6.63;;;5.95;;
57697;SDS011;43531;52.152;6.366;2023-05-10T00:41:06;7.50;;;5.80;;
57697;SDS011;43531;52.152;6.366;2023-05-10T00:41:39;6.20;;;5.60;;
57697;SDS011;43531;52.152;6.366;2023-05-10T00:42:11;6.82;;;6.13;;
57697;SDS011;43531;52.152;6.366;2023-05-10T00:42:43;6.10;;;5.55;;
57697;SDS011;43531;52.152;6.366;2023-05-10T00:43:14;9.30;;;5.95;;
57697;SDS011;43531;52.152;6.366;2023-05-10T00:43:46;7.30;;;6.32;;
57697;SDS011;43531;52.152;6.366;2023-05-10T00:44:17;7.10;;;6.40;;
57697;SDS011;43531;52.152;6.366;2023-05-10T00:44:49;7.45;;;6.57;;
57697;SDS011;43531;52.152;6.366;2023-05-10T00:45:21;8.05;;;6.28;;
57697;SDS011;43531;52.152;6.366;2023-05-10T00:45:53;10.43;;;5.60;;
57697;SDS011;43531;52.152;6.366;2023-05-10T00:46:24;7.65;;;6.78;;
57697;SDS011;43531;52.152;6.366;2023-05-10T00:46:57;7.80;;;7.05;;
57697;SDS011;43531;52.152;6.366;2023-05-10T00:47:29;7.47;;;6.65;;
57697;SDS011;43531;52.152;6.366;2023-05-10T00:48:01;10.00;;;7.25;;
57697;SDS011;43531;52.152;6.366;2023-05-10T00:48:34;6.80;;;6.05;;
57697;SDS011;43531;52.152;6.366;2023-05-10T00:49:05;11.07;;;6.82;;
57697;SDS011;43531;52.152;6.366;2023-05-10T00:49:37;7.40;;;6.57;;
57697;SDS011;43531;52.152;6.366;2023-05-10T00:50:09;7.75;;;6.95;;
57697;SDS011;43531;52.152;6.366;2023-05-10T00:50:41;7.97;;;6.53;;
57697;SDS011;43531;52.152;6.366;2023-05-10T00:51:13;7.20;;;6.28;;
57697;SDS011;43531;52.152;6.366;2023-05-10T00:51:44;7.78;;;6.85;;
57697;SDS011;43531;52.152;6.366;2023-05-10T00:52:16;9.13;;;7.13;;
57697;SDS011;43531;52.152;6.366;2023-05-10T00:52:47;6.90;;;6.22;;
57697;SDS011;43531;52.152;6.366;2023-05-10T00:53:21;9.35;;;6.03;;
57697;SDS011;43531;52.152;6.366;2023-05-10T00:53:52;7.47;;;6.50;;
57697;SDS011;43531;52.152;6.366;2023-05-10T00:54:24;7.43;;;6.72;;
57697;SDS011;43531;52.152;6.366;2023-05-10T00:54:56;7.00;;;6.30;;
57697;SDS011;43531;52.152;6.366;2023-05-10T00:55:28;7.50;;;6.53;;
57697;SDS011;43531;52.152;6.366;2023-05-10T00:55:59;8.63;;;7.82;;
57697;SDS011;43531;52.152;6.366;2023-05-10T00:56:31;6.60;;;5.90;;
57697;SDS011;43531;52.152;6.366;2023-05-10T00:57:03;7.60;;;6.78;;
57697;SDS011;43531;52.152;6.366;2023-05-10T00:57:35;7.88;;;7.07;;
57697;SDS011;43531;52.152;6.366;2023-05-10T00:58:06;8.32;;;7.53;;
57697;SDS011;43531;52.152;6.366;2023-05-10T00:58:41;7.50;;;6.78;;
57697;SDS011;43531;52.152;6.366;2023-05-10T00:59:13;10.27;;;7.55;;
57697;SDS011;43531;52.152;6.366;2023-05-10T00:59:45;8.90;;;7.68;;
57697;SDS011;43531;52.152;6.366;2023-05-10T01:00:17;7.13;;;6.50;;
57697;SDS011;43531;52.152;6.366;2023-05-10T01:00:49;9.25;;;6.43;;
57697;SDS011;43531;52.152;6.366;2023-05-10T01:01:22;12.05;;;8.10;;
57697;SDS011;43531;52.152;6.366;2023-05-10T01:01:55;8.60;;;7.70;;
57697;SDS011;43531;52.152;6.366;2023-05-10T01:02:27;6.72;;;6.20;;
57697;SDS011;43531;52.152;6.366;2023-05-10T01:03:00;8.60;;;7.38;;
57697;SDS011;43531;52.152;6.366;2023-05-10T01:03:32;7.20;;;6.55;;
57697;SDS011;43531;52.152;6.366;2023-05-10T01:04:04;7.00;;;6.30;;
57697;SDS011;43531;52.152;6.366;2023-05-10T01:04:36;8.70;;;6.88;;
57697;SDS011;43531;52.152;6.366;2023-05-10T01:05:08;7.30;;;6.60;;
57697;SDS011;43531;52.152;6.366;2023-05-10T01:05:40;8.45;;;6.72;;
57697;SDS011;43531;52.152;6.366;2023-05-10T01:06:12;7.00;;;6.40;;
57697;SDS011;43531;52.152;6.366;2023-05-10T01:06:44;7.07;;;6.38;;
57697;SDS011;43531;52.152;6.366;2023-05-10T01:07:15;7.18;;;6.57;;
57697;SDS011;43531;52.152;6.366;2023-05-10T01:07:48;8.18;;;7.30;;
57697;SDS011;43531;52.152;6.366;2023-05-10T01:08:19;9.35;;;6.97;;
57697;SDS011;43531;52.152;6.366;2023-05-10T01:08:51;8.00;;;7.20;;
57697;SDS011;43531;52.152;6.366;2023-05-10T01:09:23;7.03;;;6.38;;
57697;SDS011;43531;52.152;6.366;2023-05-10T01:09:57;8.40;;;6.28;;
57697;SDS011;43531;52.152;6.366;2023-05-10T01:10:29;6.80;;;6.10;;
57697;SDS011;43531;52.152;6.366;2023-05-10T01:11:01;8.13;;;7.32;;
57697;SDS011;43531;52.152;6.366;2023-05-10T01:11:37;7.50;;;6.72;;
57697;SDS011;43531;52.152;6.366;2023-05-10T01:12:09;11.60;;;7.25;;
57697;SDS011;43531;52.152;6.366;2023-05-10T01:12:44;7.72;;;6.95;;
57697;SDS011;43531;52.152;6.366;2023-05-10T01:13:29;7.43;;;6.57;;
57697;SDS011;43531;52.152;6.366;2023-05-10T01:14:02;8.50;;;7.03;;
57697;SDS011;43531;52.152;6.366;2023-05-10T01:14:34;7.63;;;6.82;;
57697;SDS011;43531;52.152;6.366;2023-05-10T01:15:07;7.47;;;6.22;;
57697;SDS011;43531;52.152;6.366;2023-05-10T01:15:39;8.55;;;7.03;;
57697;SDS011;43531;52.152;6.366;2023-05-10T01:16:12;8.48;;;6.45;;
57697;SDS011;43531;52.152;6.366;2023-05-10T01:16:45;7.70;;;6.82;;
57697;SDS011;43531;52.152;6.366;2023-05-10T01:17:19;9.77;;;8.38;;
57697;SDS011;43531;52.152;6.366;2023-05-10T01:17:51;9.63;;;7.38;;
57697;SDS011;43531;52.152;6.366;2023-05-10T01:18:23;8.60;;;7.75;;
57697;SDS011;43531;52.152;6.366;2023-05-10T01:18:55;7.55;;;6.85;;
57697;SDS011;43531;52.152;6.366;2023-05-10T01:19:28;8.13;;;7.32;;
57697;SDS011;43531;52.152;6.366;2023-05-10T01:20:01;8.45;;;7.00;;
57697;SDS011;43531;52.152;6.366;2023-05-10T01:20:35;8.93;;;8.02;;
57697;SDS011;43531;52.152;6.366;2023-05-10T01:21:53;8.57;;;7.57;;
57697;SDS011;43531;52.152;6.366;2023-05-10T01:28:34;9.88;;;6.57;;
57697;SDS011;43531;52.152;6.366;2023-05-10T01:31:07;8.65;;;6.90;;
57697;SDS011;43531;52.152;6.366;2023-05-10T01:33:48;9.52;;;6.65;;
57697;SDS011;43531;52.152;6.366;2023-05-10T01:34:31;8.98;;;7.20;;
57697;SDS011;43531;52.152;6.366;2023-05-10T01:35:17;9.18;;;7.20;;
57697;SDS011;43531;52.152;6.366;2023-05-10T01:36:35;8.45;;;6.50;;
57697;SDS011;43531;52.152;6.366;2023-05-10T01:37:13;9.60;;;7.35;;
57697;SDS011;43531;52.152;6.366;2023-05-10T01:37:50;7.28;;;6.57;;
57697;SDS011;43531;52.152;6.366;2023-05-10T01:39:38;7.28;;;6.30;;
57697;SDS011;43531;52.152;6.366;2023-05-10T01:40:18;10.18;;;7.38;;
57697;SDS011;43531;52.152;6.366;2023-05-10T01:41:15;8.90;;;7.43;;
57697;SDS011;43531;52.152;6.366;2023-05-10T01:42:03;9.07;;;7.32;;
57697;SDS011;43531;52.152;6.366;2023-05-10T01:42:43;10.00;;;7.35;;
57697;SDS011;43531;52.152;6.366;2023-05-10T01:43:26;9.23;;;7.45;;
57697;SDS011;43531;52.152;6.366;2023-05-10T01:46:09;10.63;;;7.57;;
57697;SDS011;43531;52.152;6.366;2023-05-10T01:46:43;9.57;;;7.60;;
57697;SDS011;43531;52.152;6.366;2023-05-10T01:48:13;9.55;;;8.00;;
57697;SDS011;43531;52.152;6.366;2023-05-10T01:48:51;12.93;;;8.00;;
57697;SDS011;43531;52.152;6.366;2023-05-10T01:49:25;10.25;;;8.43;;
57697;SDS011;43531;52.152;6.366;2023-05-10T01:49:59;9.43;;;7.85;;
57697;SDS011;43531;52.152;6.366;2023-05-10T01:50:36;11.20;;;8.05;;
57697;SDS011;43531;52.152;6.366;2023-05-10T01:51:10;11.52;;;8.52;;
57697;SDS011;43531;52.152;6.366;2023-05-10T01:51:44;9.85;;;8.45;;
57697;SDS011;43531;52.152;6.366;2023-05-10T01:52:19;8.52;;;7.65;;
57697;SDS011;43531;52.152;6.366;2023-05-10T01:52:53;11.00;;;7.93;;
57697;SDS011;43531;52.152;6.366;2023-05-10T01:53:26;14.15;;;8.85;;
57697;SDS011;43531;52.152;6.366;2023-05-10T01:54:02;14.38;;;10.60;;
57697;SDS011;43531;52.152;6.366;2023-05-10T01:54:34;12.90;;;9.30;;
57697;SDS011;43531;52.152;6.366;2023-05-10T01:55:08;11.93;;;9.05;;
57697;SDS011;43531;52.152;6.366;2023-05-10T01:55:47;9.93;;;8.57;;
57697;SDS011;43531;52.152;6.366;2023-05-10T01:56:21;10.45;;;8.85;;
57697;SDS011;43531;52.152;6.366;2023-05-10T01:56:56;10.77;;;8.90;;
57697;SDS011;43531;52.152;6.366;2023-05-10T01:57:34;11.48;;;8.02;;
57697;SDS011;43531;52.152;6.366;2023-05-10T01:58:08;10.05;;;8.25;;
57697;SDS011;43531;52.152;6.366;2023-05-10T01:58:43;12.48;;;8.82;;
57697;SDS011;43531;52.152;6.366;2023-05-10T01:59:18;12.07;;;8.40;;
57697;SDS011;43531;52.152;6.366;2023-05-10T01:59:50;11.13;;;7.72;;
57697;SDS011;43531;52.152;6.366;2023-05-10T02:00:22;12.82;;;9.20;;
57697;SDS011;43531;52.152;6.366;2023-05-10T02:00:55;11.95;;;9.25;;
57697;SDS011;43531;52.152;6.366;2023-05-10T02:01:30;15.52;;;9.90;;
57697;SDS011;43531;52.152;6.366;2023-05-10T02:02:02;10.52;;;8.32;;
57697;SDS011;43531;52.152;6.366;2023-05-10T02:02:37;11.93;;;9.32;;
57697;SDS011;43531;52.152;6.366;2023-05-10T02:03:09;36.17;;;12.80;;
57697;SDS011;43531;52.152;6.366;2023-05-10T02:03:42;11.52;;;10.18;;
57697;SDS011;43531;52.152;6.366;2023-05-10T02:04:15;14.20;;;8.82;;
57697;SDS011;43531;52.152;6.366;2023-05-10T02:04:49;14.88;;;9.82;;
57697;SDS011;43531;52.152;6.366;2023-05-10T02:05:22;12.68;;;9.23;;
57697;SDS011;43531;52.152;6.366;2023-05-10T02:05:54;12.02;;;9.38;;
57697;SDS011;43531;52.152;6.366;2023-05-10T02:06:26;19.35;;;9.65;;
57697;SDS011;43531;52.152;6.366;2023-05-10T02:06:58;14.35;;;10.15;;
57697;SDS011;43531;52.152;6.366;2023-05-10T02:07:30;14.32;;;10.07;;
57697;SDS011;43531;52.152;6.366;2023-05-10T02:08:05;11.43;;;9.63;;
57697;SDS011;43531;52.152;6.366;2023-05-10T02:08:38;14.52;;;9.65;;
57697;SDS011;43531;52.152;6.366;2023-05-10T02:09:10;11.75;;;9.80;;
57697;SDS011;43531;52.152;6.366;2023-05-10T02:09:44;10.60;;;8.73;;
57697;SDS011;43531;52.152;6.366;2023-05-10T02:10:18;18.25;;;10.40;;
57697;SDS011;43531;52.152;6.366;2023-05-10T02:10:52;13.35;;;9.95;;
57697;SDS011;43531;52.152;6.366;2023-05-10T02:11:26;13.13;;;10.38;;
57697;SDS011;43531;52.152;6.366;2023-05-10T02:11:59;13.00;;;10.65;;
57697;SDS011;43531;52.152;6.366;2023-05-10T02:12:36;14.15;;;9.68;;
57697;SDS011;43531;52.152;6.366;2023-05-10T02:13:10;16.08;;;10.48;;
57697;SDS011;43531;52.152;6.366;2023-05-10T02:13:42;14.88;;;10.68;;
57697;SDS011;43531;52.152;6.366;2023-05-10T02:14:14;18.17;;;11.10;;
57697;SDS011;43531;52.152;6.366;2023-05-10T02:14:46;14.77;;;10.75;;
57697;SDS011;43531;52.152;6.366;2023-05-10T02:15:22;13.88;;;10.27;;
57697;SDS011;43531;52.152;6.366;2023-05-10T02:15:56;17.75;;;11.48;;
57697;SDS011;43531;52.152;6.366;2023-05-10T02:16:28;21.13;;;12.23;;
57697;SDS011;43531;52.152;6.366;2023-05-10T02:17:04;15.68;;;10.45;;
57697;SDS011;43531;52.152;6.366;2023-05-10T02:17:36;16.77;;;10.55;;
57697;SDS011;43531;52.152;6.366;2023-05-10T02:18:09;14.02;;;11.27;;
57697;SDS011;43531;52.152;6.366;2023-05-10T02:18:42;14.18;;;10.70;;
57697;SDS011;43531;52.152;6.366;2023-05-10T02:19:14;15.02;;;10.93;;
57697;SDS011;43531;52.152;6.366;2023-05-10T02:19:46;15.80;;;11.70;;
57697;SDS011;43531;52.152;6.366;2023-05-10T02:20:18;18.65;;;12.32;;
57697;SDS011;43531;52.152;6.366;2023-05-10T02:20:51;15.98;;;12.20;;
57697;SDS011;43531;52.152;6.366;2023-05-10T02:21:23;17.92;;;12.27;;
57697;SDS011;43531;52.152;6.366;2023-05-10T02:21:55;14.95;;;10.85;;
57697;SDS011;43531;52.152;6.366;2023-05-10T02:22:28;15.85;;;10.65;;
57697;SDS011;43531;52.152;6.366;2023-05-10T02:23:00;15.30;;;11.27;;
57697;SDS011;43531;52.152;6.366;2023-05-10T02:23:33;15.45;;;11.30;;
57697;SDS011;43531;52.152;6.366;2023-05-10T02:24:06;17.88;;;11.82;;
57697;SDS011;43531;52.152;6.366;2023-05-10T02:24:38;17.38;;;12.32;;
57697;SDS011;43531;52.152;6.366;2023-05-10T02:25:11;23.70;;;13.50;;
57697;SDS011;43531;52.152;6.366;2023-05-10T02:25:44;21.00;;;13.77;;
57697;SDS011;43531;52.152;6.366;2023-05-10T02:26:17;22.77;;;12.48;;
57697;SDS011;43531;52.152;6.366;2023-05-10T02:26:49;15.43;;;12.02;;
57697;SDS011;43531;52.152;6.366;2023-05-10T02:27:23;18.38;;;12.80;;
57697;SDS011;43531;52.152;6.366;2023-05-10T02:27:56;19.58;;;13.35;;
57697;SDS011;43531;52.152;6.366;2023-05-10T02:28:28;22.30;;;13.70;;
57697;SDS011;43531;52.152;6.366;2023-05-10T02:29:01;20.88;;;14.13;;
57697;SDS011;43531;52.152;6.366;2023-05-10T02:29:34;24.15;;;14.48;;
57697;SDS011;43531;52.152;6.366;2023-05-10T02:30:07;21.00;;;13.60;;
57697;SDS011;43531;52.152;6.366;2023-05-10T02:30:39;21.65;;;14.48;;
57697;SDS011;43531;52.152;6.366;2023-05-10T02:31:11;19.77;;;12.45;;
57697;SDS011;43531;52.152;6.366;2023-05-10T02:31:43;20.60;;;12.73;;
57697;SDS011;43531;52.152;6.366;2023-05-10T02:32:15;20.58;;;14.60;;
57697;SDS011;43531;52.152;6.366;2023-05-10T02:32:47;24.70;;;14.75;;
57697;SDS011;43531;52.152;6.366;2023-05-10T02:33:20;20.27;;;13.38;;
57697;SDS011;43531;52.152;6.366;2023-05-10T02:33:53;21.05;;;13.45;;
57697;SDS011;43531;52.152;6.366;2023-05-10T02:34:25;19.75;;;12.68;;
57697;SDS011;43531;52.152;6.366;2023-05-10T02:34:58;18.20;;;13.02;;
57697;SDS011;43531;52.152;6.366;2023-05-10T02:35:29;16.35;;;12.50;;
57697;SDS011;43531;52.152;6.366;2023-05-10T02:36:02;19.30;;;12.70;;
57697;SDS011;43531;52.152;6.366;2023-05-10T02:36:34;20.50;;;14.45;;
57697;SDS011;43531;52.152;6.366;2023-05-10T02:37:08;17.85;;;12.52;;
57697;SDS011;43531;52.152;6.366;2023-05-10T02:37:40;20.77;;;14.18;;
57697;SDS011;43531;52.152;6.366;2023-05-10T02:38:12;21.48;;;15.38;;
57697;SDS011;43531;52.152;6.366;2023-05-10T02:38:44;22.27;;;14.65;;
57697;SDS011;43531;52.152;6.366;2023-05-10T02:39:17;24.27;;;15.65;;
57697;SDS011;43531;52.152;6.366;2023-05-10T02:39:51;22.48;;;14.77;;
57697;SDS011;43531;52.152;6.366;2023-05-10T02:40:23;21.35;;;14.20;;
57697;SDS011;43531;52.152;6.366;2023-05-10T02:40:58;20.70;;;13.85;;
57697;SDS011;43531;52.152;6.366;2023-05-10T02:41:30;25.38;;;13.73;;
57697;SDS011;43531;52.152;6.366;2023-05-10T02:42:03;22.45;;;14.23;;
57697;SDS011;43531;52.152;6.366;2023-05-10T02:42:37;22.60;;;13.90;;
57697;SDS011;43531;52.152;6.366;2023-05-10T02:43:09;21.92;;;14.75;;
57697;SDS011;43531;52.152;6.366;2023-05-10T02:43:43;26.00;;;15.63;;
57697;SDS011;43531;52.152;6.366;2023-05-10T02:44:17;25.20;;;16.25;;
57697;SDS011;43531;52.152;6.366;2023-05-10T02:44:50;24.15;;;15.50;;
57697;SDS011;43531;52.152;6.366;2023-05-10T02:45:26;23.33;;;15.38;;
57697;SDS011;43531;52.152;6.366;2023-05-10T02:45:59;29.02;;;16.67;;
57697;SDS011;43531;52.152;6.366;2023-05-10T02:46:31;25.83;;;16.90;;
57697;SDS011;43531;52.152;6.366;2023-05-10T02:47:02;26.27;;;16.13;;
57697;SDS011;43531;52.152;6.366;2023-05-10T02:47:35;28.92;;;17.35;;
57697;SDS011;43531;52.152;6.366;2023-05-10T02:48:07;28.70;;;16.27;;
57697;SDS011;43531;52.152;6.366;2023-05-10T02:48:38;28.90;;;17.35;;
57697;SDS011;43531;52.152;6.366;2023-05-10T02:49:10;24.67;;;16.77;;
57697;SDS011;43531;52.152;6.366;2023-05-10T02:49:42;24.80;;;16.75;;
57697;SDS011;43531;52.152;6.366;2023-05-10T02:50:13;26.80;;;16.05;;
57697;SDS011;43531;52.152;6.366;2023-05-10T02:50:46;28.35;;;16.98;;
57697;SDS011;43531;52.152;6.366;2023-05-10T02:51:24;29.27;;;16.88;;
57697;SDS011;43531;52.152;6.366;2023-05-10T02:51:58;28.63;;;17.42;;
57697;SDS011;43531;52.152;6.366;2023-05-10T02:52:39;28.38;;;17.42;;
57697;SDS011;43531;52.152;6.366;2023-05-10T02:53:15;25.80;;;15.88;;
57697;SDS011;43531;52.152;6.366;2023-05-10T02:53:47;32.85;;;16.70;;
57697;SDS011;43531;52.152;6.366;2023-05-10T02:54:22;25.02;;;17.60;;
57697;SDS011;43531;52.152;6.366;2023-05-10T02:55:00;26.88;;;16.98;;
57697;SDS011;43531;52.152;6.366;2023-05-10T02:55:34;32.83;;;17.58;;
57697;SDS011;43531;52.152;6.366;2023-05-10T02:56:11;38.60;;;19.25;;
57697;SDS011;43531;52.152;6.366;2023-05-10T02:56:50;27.42;;;16.73;;
57697;SDS011;43531;52.152;6.366;2023-05-10T02:57:25;28.77;;;17.08;;
57697;SDS011;43531;52.152;6.366;2023-05-10T02:58:00;32.97;;;18.23;;
57697;SDS011;43531;52.152;6.366;2023-05-10T02:58:33;29.60;;;17.85;;
57697;SDS011;43531;52.152;6.366;2023-05-10T02:59:04;33.25;;;18.17;;
57697;SDS011;43531;52.152;6.366;2023-05-10T02:59:36;29.55;;;18.27;;
57697;SDS011;43531;52.152;6.366;2023-05-10T03:00:08;26.30;;;16.38;;
57697;SDS011;43531;52.152;6.366;2023-05-10T03:00:40;28.40;;;19.20;;
57697;SDS011;43531;52.152;6.366;2023-05-10T03:01:11;32.40;;;18.08;;
57697;SDS011;43531;52.152;6.366;2023-05-10T03:01:43;34.15;;;19.10;;
57697;SDS011;43531;52.152;6.366;2023-05-10T03:02:15;35.00;;;17.70;;
57697;SDS011;43531;52.152;6.366;2023-05-10T03:02:46;33.45;;;19.27;;
57697;SDS011;43531;52.152;6.366;2023-05-10T03:03:19;28.52;;;16.75;;
57697;SDS011;43531;52.152;6.366;2023-05-10T03:03:53;29.13;;;18.63;;
57697;SDS011;43531;52.152;6.366;2023-05-10T03:04:24;32.00;;;18.70;;
57697;SDS011;43531;52.152;6.366;2023-05-10T03:04:58;31.50;;;17.85;;
57697;SDS011;43531;52.152;6.366;2023-05-10T03:05:31;30.73;;;18.58;;
57697;SDS011;43531;52.152;6.366;2023-05-10T03:06:05;34.67;;;18.83;;
57697;SDS011;43531;52.152;6.366;2023-05-10T03:06:36;34.72;;;19.60;;
57697;SDS011;43531;52.152;6.366;2023-05-10T03:07:08;28.27;;;18.42;;
57697;SDS011;43531;52.152;6.366;2023-05-10T03:07:40;29.05;;;17.65;;
57697;SDS011;43531;52.152;6.366;2023-05-10T03:08:12;30.40;;;17.75;;
57697;SDS011;43531;52.152;6.366;2023-05-10T03:08:44;52.70;;;19.88;;
57697;SDS011;43531;52.152;6.366;2023-05-10T03:09:17;31.48;;;18.58;;
57697;SDS011;43531;52.152;6.366;2023-05-10T03:09:49;34.28;;;19.45;;
57697;SDS011;43531;52.152;6.366;2023-05-10T03:10:22;30.70;;;19.15;;
57697;SDS011;43531;52.152;6.366;2023-05-10T03:11:04;32.05;;;18.55;;
57697;SDS011;43531;52.152;6.366;2023-05-10T03:11:42;34.22;;;18.75;;
57697;SDS011;43531;52.152;6.366;2023-05-10T03:14:06;30.20;;;17.42;;
57697;SDS011;43531;52.152;6.366;2023-05-10T03:14:49;31.95;;;16.42;;
57697;SDS011;43531;52.152;6.366;2023-05-10T03:16:12;37.13;;;18.70;;
57697;SDS011;43531;52.152;6.366;2023-05-10T03:16:50;30.55;;;17.58;;
57697;SDS011;43531;52.152;6.366;2023-05-10T03:17:31;30.05;;;17.70;;
57697;SDS011;43531;52.152;6.366;2023-05-10T03:19:16;29.88;;;17.40;;
57697;SDS011;43531;52.152;6.366;2023-05-10T03:19:53;35.35;;;19.20;;
57697;SDS011;43531;52.152;6.366;2023-05-10T03:20:31;34.80;;;19.45;;
57697;SDS011;43531;52.152;6.366;2023-05-10T03:21:07;32.40;;;18.83;;
57697;SDS011;43531;52.152;6.366;2023-05-10T03:21:41;32.08;;;18.50;;
57697;SDS011;43531;52.152;6.366;2023-05-10T03:22:16;30.17;;;17.90;;
57697;SDS011;43531;52.152;6.366;2023-05-10T03:22:56;31.73;;;19.63;;
57697;SDS011;43531;52.152;6.366;2023-05-10T03:23:39;33.35;;;19.83;;
57697;SDS011;43531;52.152;6.366;2023-05-10T03:24:13;35.40;;;17.90;;
57697;SDS011;43531;52.152;6.366;2023-05-10T03:24:48;31.00;;;17.90;;
57697;SDS011;43531;52.152;6.366;2023-05-10T03:25:20;32.97;;;18.17;;
57697;SDS011;43531;52.152;6.366;2023-05-10T03:25:55;33.50;;;18.00;;
57697;SDS011;43531;52.152;6.366;2023-05-10T03:26:27;28.90;;;18.35;;
57697;SDS011;43531;52.152;6.366;2023-05-10T03:27:08;36.25;;;19.45;;
57697;SDS011;43531;52.152;6.366;2023-05-10T03:27:40;36.58;;;20.27;;
57697;SDS011;43531;52.152;6.366;2023-05-10T03:28:14;31.23;;;19.00;;
57697;SDS011;43531;52.152;6.366;2023-05-10T03:28:48;31.90;;;18.73;;
57697;SDS011;43531;52.152;6.366;2023-05-10T03:29:20;32.67;;;20.13;;
57697;SDS011;43531;52.152;6.366;2023-05-10T03:29:53;33.17;;;19.70;;
57697;SDS011;43531;52.152;6.366;2023-05-10T03:30:26;33.88;;;19.60;;
57697;SDS011;43531;52.152;6.366;2023-05-10T03:30:58;32.72;;;19.45;;
57697;SDS011;43531;52.152;6.366;2023-05-10T03:31:30;32.67;;;20.42;;
57697;SDS011;43531;52.152;6.366;2023-05-10T03:32:03;36.72;;;20.35;;
57697;SDS011;43531;52.152;6.366;2023-05-10T03:32:35;35.80;;;21.92;;
57697;SDS011;43531;52.152;6.366;2023-05-10T03:33:07;36.58;;;19.55;;
57697;SDS011;43531;52.152;6.366;2023-05-10T03:33:49;35.75;;;21.75;;
57697;SDS011;43531;52.152;6.366;2023-05-10T03:34:27;38.20;;;21.48;;
57697;SDS011;43531;52.152;6.366;2023-05-10T03:35:06;38.15;;;21.15;;
57697;SDS011;43531;52.152;6.366;2023-05-10T03:35:39;34.35;;;21.90;;
57697;SDS011;43531;52.152;6.366;2023-05-10T03:36:11;49.92;;;21.77;;
57697;SDS011;43531;52.152;6.366;2023-05-10T03:36:42;37.45;;;21.27;;
57697;SDS011;43531;52.152;6.366;2023-05-10T03:37:14;37.13;;;21.70;;
57697;SDS011;43531;52.152;6.366;2023-05-10T03:37:46;39.35;;;23.65;;
57697;SDS011;43531;52.152;6.366;2023-05-10T03:38:18;44.55;;;23.50;;